Time;durP1;ratioP1;P1;durP2;ratioP2;P2;SDS_P1;SDS_P2;PMS_P1;PMS_P2;Temp;Humidity;BMP_temperature;BMP_pressure;BME280_temperature;BME280_humidity;BME280_pressure;Samples;Min_cycle;Max_cycle;Signal;HPM_P1;HPM_P2
2021/05/18 00:00:39;;;;;;;15.60;2.83;;;;;;;10.97;100.00;101611.91;5051101;28;20068;-65
2021/05/18 00:03:07;;;;;;;12.38;3.00;;;;;;;10.93;100.00;101613.38;5050853;28;20161;-63
2021/05/18 00:05:35;;;;;;;13.18;3.08;;;;;;;10.91;100.00;101614.66;5051303;28;20039;-65
2021/05/18 00:08:06;;;;;;;10.95;3.00;;;;;;;10.89;100.00;101617.63;5051118;28;20505;-64
2021/05/18 00:13:20;;;;;;;9.38;2.58;;;;;;;10.83;100.00;101613.06;5050862;28;20112;-66
2021/05/18 00:15:47;;;;;;;13.20;3.10;;;;;;;10.82;100.00;101606.78;5050848;28;20430;-64
2021/05/18 00:18:14;;;;;;;11.32;2.70;;;;;;;10.81;100.00;101620.66;5050988;28;20399;-66
2021/05/18 00:20:40;;;;;;;12.65;2.17;;;;;;;10.79;100.00;101611.88;5050796;28;20056;-67
2021/05/18 00:23:09;;;;;;;15.60;3.08;;;;;;;10.77;100.00;101616.72;5050538;28;20494;-66
2021/05/18 00:25:35;;;;;;;12.07;2.40;;;;;;;10.75;100.00;101616.09;5050784;28;20044;-66
2021/05/18 00:28:01;;;;;;;15.73;2.78;;;;;;;10.71;100.00;101612.13;5050938;28;20040;-64
2021/05/18 00:30:27;;;;;;;13.73;2.80;;;;;;;10.68;100.00;101604.38;5050670;28;20041;-65
2021/05/18 00:32:54;;;;;;;8.98;2.13;;;;;;;10.68;100.00;101609.84;5050570;28;20037;-66
2021/05/18 00:35:20;;;;;;;12.32;1.92;;;;;;;10.63;100.00;101607.81;5049378;28;20036;-65
2021/05/18 00:37:46;;;;;;;9.85;1.95;;;;;;;10.62;100.00;101606.13;5050644;28;20045;-65
2021/05/18 00:40:16;;;;;;;12.60;2.38;;;;;;;10.60;100.00;101612.88;5049680;28;20044;-65
2021/05/18 00:42:50;;;;;;;12.93;2.30;;;;;;;10.58;100.00;101611.19;5050496;28;20060;-66
2021/05/18 00:45:25;;;;;;;8.35;2.15;;;;;;;10.55;100.00;101600.72;5050840;28;20191;-64
2021/05/18 00:47:50;;;;;;;12.75;2.15;;;;;;;10.55;100.00;101611.63;5050979;28;20079;-65
2021/05/18 00:50:16;;;;;;;9.63;2.45;;;;;;;10.53;100.00;101607.47;5049187;28;20044;-65
2021/05/18 00:52:42;;;;;;;13.35;3.78;;;;;;;10.51;100.00;101610.41;5050322;28;20037;-65
2021/05/18 00:55:18;;;;;;;14.38;3.13;;;;;;;10.49;100.00;101598.88;5049106;28;20127;-66
2021/05/18 01:00:28;;;;;;;10.00;2.50;;;;;;;10.47;100.00;101602.91;5051070;28;20087;-64
2021/05/18 01:02:53;;;;;;;12.63;2.60;;;;;;;10.47;100.00;101608.38;5050479;28;20768;-64
2021/05/18 01:05:21;;;;;;;12.95;3.22;;;;;;;10.44;100.00;101606.91;5050300;28;20040;-66
2021/05/18 01:07:48;;;;;;;11.40;2.80;;;;;;;10.44;100.00;101603.34;5050404;28;20407;-65
2021/05/18 01:10:16;;;;;;;17.65;3.35;;;;;;;10.43;100.00;101607.97;5050168;28;20057;-66
2021/05/18 01:12:43;;;;;;;19.52;2.58;;;;;;;10.43;100.00;101601.69;5050215;28;20132;-65
2021/05/18 01:15:10;;;;;;;15.15;2.78;;;;;;;10.43;100.00;101607.13;5050284;28;20044;-66
2021/05/18 01:17:36;;;;;;;17.27;3.25;;;;;;;10.43;100.00;101602.50;5050274;28;20492;-65
2021/05/18 01:20:11;;;;;;;16.60;2.50;;;;;;;10.43;100.00;101609.88;5050474;28;20049;-65
2021/05/18 01:22:43;;;;;;;14.90;2.67;;;;;;;10.43;100.00;101607.97;5050021;28;20029;-66
2021/05/18 01:25:09;;;;;;;14.52;3.78;;;;;;;10.42;100.00;101605.47;5050131;28;20033;-66
2021/05/18 01:27:37;;;;;;;15.00;2.72;;;;;;;10.42;100.00;101598.13;5050245;28;20376;-65
2021/05/18 01:30:04;;;;;;;20.58;3.17;;;;;;;10.41;100.00;101598.31;5050133;28;20033;-64
2021/05/18 01:32:30;;;;;;;22.08;2.92;;;;;;;10.40;100.00;101602.94;5050082;28;20041;-65
2021/05/18 01:34:56;;;;;;;14.13;2.50;;;;;;;10.41;100.00;101599.19;5050326;28;20033;-65
2021/05/18 01:37:22;;;;;;;11.43;3.00;;;;;;;10.38;100.00;101594.13;5050166;28;20048;-66
2021/05/18 01:40:09;;;;;;;12.30;3.30;;;;;;;10.37;100.00;101591.63;5050109;28;20037;-64
2021/05/18 01:42:48;;;;;;;16.55;3.78;;;;;;;10.35;100.00;101599.22;5049909;28;20056;-65
2021/05/18 01:45:20;;;;;;;17.20;2.97;;;;;;;10.32;100.00;101589.56;5050032;28;20041;-64
2021/05/18 01:47:54;;;;;;;21.55;2.85;;;;;;;10.31;100.00;101595.25;5050500;28;20033;-66
2021/05/18 01:50:24;;;;;;;21.92;3.97;;;;;;;10.27;100.00;101595.69;5050306;28;20041;-64
2021/05/18 01:52:50;;;;;;;18.48;3.17;;;;;;;10.26;100.00;101601.38;5053530;28;20378;-63
2021/05/18 01:55:24;;;;;;;15.52;2.47;;;;;;;10.25;100.00;101610.63;5053584;28;20041;-64
2021/05/18 01:57:51;;;;;;;14.35;2.67;;;;;;;10.23;100.00;101607.25;5053719;28;20127;-66
2021/05/18 02:00:20;;;;;;;19.67;2.97;;;;;;;10.21;100.00;101609.38;5053420;28;20487;-66
2021/05/18 02:02:46;;;;;;;17.45;3.03;;;;;;;10.20;100.00;101618.59;5053142;28;20071;-64
2021/05/18 02:05:16;;;;;;;15.20;2.80;;;;;;;10.19;100.00;101616.94;5053311;28;20044;-64
2021/05/18 02:07:45;;;;;;;23.05;3.38;;;;;;;10.18;100.00;101615.25;5053251;28;20485;-65
2021/05/18 02:10:16;;;;;;;23.95;2.92;;;;;;;10.18;100.00;101620.72;5053046;28;20064;-65
2021/05/18 02:12:42;;;;;;;22.02;3.80;;;;;;;10.17;100.00;101624.50;5053478;28;20119;-64
2021/05/18 02:26:16;;;;;;;21.77;3.72;;;;;;;10.09;100.00;101627.53;5053054;28;20073;-63
2021/05/18 02:28:43;;;;;;;18.05;3.30;;;;;;;10.08;100.00;101625.84;5053045;28;20047;-64
2021/05/18 02:31:09;;;;;;;18.38;3.25;;;;;;;10.07;100.00;101619.56;5052987;28;20032;-66
2021/05/18 02:33:34;;;;;;;22.58;3.78;;;;;;;10.06;100.00;101622.47;5052784;28;20082;-67
2021/05/18 02:36:00;;;;;;;24.73;3.75;;;;;;;10.06;100.00;101625.19;5052789;28;20037;-65
2021/05/18 02:38:26;;;;;;;22.65;4.30;;;;;;;10.05;100.00;101632.56;5052682;28;20437;-65
2021/05/18 02:40:51;;;;;;;19.55;3.55;;;;;;;10.04;100.00;101627.31;5052570;28;20037;-66
2021/05/18 02:43:23;;;;;;;22.52;4.15;;;;;;;10.03;100.00;101633.84;5052410;28;20083;-65
2021/05/18 02:50:58;;;;;;;20.75;3.30;;;;;;;10.02;100.00;101626.69;5052612;28;20060;-64
2021/05/18 02:53:25;;;;;;;23.25;4.00;;;;;;;10.01;100.00;101627.75;5052403;28;20555;-64
2021/05/18 02:58:18;;;;;;;25.80;3.60;;;;;;;9.99;100.00;101625.25;5052567;28;20087;-64
2021/05/18 03:00:44;;;;;;;30.73;4.15;;;;;;;9.97;100.00;101622.75;5052328;28;20037;-65
2021/05/18 03:03:10;;;;;;;28.23;3.97;;;;;;;9.97;100.00;101621.91;5083523;28;20124;-65
2021/05/18 03:05:35;;;;;;;22.83;3.20;;;;;;;9.97;100.00;101622.75;5052430;28;20119;-65
2021/05/18 03:08:03;;;;;;;21.77;4.07;;;;;;;9.96;100.00;101623.81;5052245;28;20087;-64
2021/05/18 03:10:29;;;;;;;23.65;3.67;;;;;;;9.95;100.00;101621.28;5051968;28;20392;-66
2021/05/18 03:12:54;;;;;;;30.25;4.13;;;;;;;9.95;100.00;101627.59;5052169;28;20048;-64
2021/05/18 03:15:20;;;;;;;28.65;3.78;;;;;;;9.95;100.00;101622.13;5052151;28;20131;-65
2021/05/18 03:17:46;;;;;;;22.02;3.67;;;;;;;9.96;100.00;101622.97;5051897;28;20087;-65
2021/05/18 03:20:17;;;;;;;26.58;4.07;;;;;;;9.96;100.00;101621.06;5051966;28;20091;-64
2021/05/18 03:22:43;;;;;;;17.52;3.08;;;;;;;9.95;100.00;101621.28;5051803;28;20039;-65
2021/05/18 03:25:10;;;;;;;33.47;4.20;;;;;;;9.94;100.00;101620.47;5052050;28;20049;-66
2021/05/18 03:27:36;;;;;;;27.75;4.10;;;;;;;9.91;100.00;101620.91;5051806;28;20413;-64
2021/05/18 03:30:17;;;;;;;16.75;3.45;;;;;;;9.90;100.00;101613.78;5050370;28;20037;-65
2021/05/18 03:35:28;;;;;;;26.83;4.85;;;;;;;9.89;100.00;101617.56;5066870;28;20131;-66
2021/05/18 03:37:56;;;;;;;19.42;3.08;;;;;;;9.89;100.00;101620.28;5051792;28;20147;-64
2021/05/18 03:40:25;;;;;;;23.80;3.55;;;;;;;9.88;100.00;101624.03;5051603;28;20124;-66
2021/05/18 03:43:31;;;;;;;20.08;3.05;;;;;;;9.89;100.00;101625.75;5051538;28;20380;-65
2021/05/18 03:45:41;;;;;;;17.38;3.20;;;;;;;9.90;100.00;101634.75;5051169;28;20419;-64
2021/05/18 04:04:17;;;;;;;22.65;4.80;;;;;;;9.96;100.00;101633.88;5051045;28;20453;-65
2021/05/18 04:12:31;;;;;;;26.27;5.13;;;;;;;9.97;100.00;101622.75;5051160;28;20041;-67
2021/05/18 04:18:32;;;;;;;28.33;4.53;;;;;;;9.96;100.00;101623.81;5051145;28;20041;-65
2021/05/18 04:42:30;;;;;;;22.45;3.80;;;;;;;9.84;100.00;101609.16;5050713;28;20076;-64
2021/05/18 04:53:15;;;;;;;16.27;4.07;;;;;;;9.76;100.00;101600.41;5048147;28;20039;-66
2021/05/18 05:01:14;;;;;;;18.45;4.57;;;;;;;9.71;100.00;101598.31;5050412;28;20040;-66
2021/05/18 05:08:57;;;;;;;19.93;3.73;;;;;;;9.64;100.00;101601.09;5050326;28;20057;-66
2021/05/18 05:14:15;;;;;;;15.30;4.13;;;;;;;9.61;100.00;101604.25;5050035;28;20037;-65
2021/05/18 05:16:40;;;;;;;19.27;4.65;;;;;;;9.61;100.00;101604.25;5050229;28;20071;-66
2021/05/18 05:19:06;;;;;;;23.65;4.43;;;;;;;9.63;100.00;101606.78;5050337;28;20049;-64
2021/05/18 05:21:33;;;;;;;22.80;5.35;;;;;;;9.64;100.00;101603.00;5048985;28;20128;-64
2021/05/18 05:23:58;;;;;;;25.30;5.03;;;;;;;9.66;100.00;101611.78;5050106;28;20048;-66
2021/05/18 05:26:24;;;;;;;23.75;4.88;;;;;;;9.70;100.00;101607.56;5052026;28;20041;-67
2021/05/18 05:28:50;;;;;;;18.85;4.00;;;;;;;9.72;100.00;101600.03;5054638;28;20033;-65
2021/05/18 05:31:15;;;;;;;30.85;4.40;;;;;;;9.72;100.00;101600.03;5053964;28;20056;-65
2021/05/18 05:33:41;;;;;;;24.38;4.10;;;;;;;9.73;100.00;101601.69;5053847;28;20028;-66
2021/05/18 05:36:07;;;;;;;22.23;4.25;;;;;;;9.73;100.00;101604.44;5053906;28;20403;-66
2021/05/18 05:38:34;;;;;;;16.80;4.45;;;;;;;9.73;100.00;101604.44;5054425;28;20051;-66
2021/05/18 05:40:59;;;;;;;20.25;5.20;;;;;;;9.74;100.00;101619.75;5053948;28;20128;-64
2021/05/18 05:43:25;;;;;;;23.35;4.78;;;;;;;9.76;100.00;101619.50;5053627;28;20387;-65
2021/05/18 05:45:51;;;;;;;25.70;4.97;;;;;;;9.78;100.00;101610.06;5053827;28;20033;-65
2021/05/18 05:48:21;;;;;;;21.48;5.53;;;;;;;9.86;100.00;101623.44;5053676;28;20098;-66
2021/05/18 05:50:49;;;;;;;16.20;4.43;;;;;;;9.93;100.00;101616.06;5053540;28;20051;-64
2021/05/18 05:53:16;;;;;;;26.83;4.88;;;;;;;10.00;100.00;101617.91;5053483;28;20044;-65
2021/05/18 05:55:43;;;;;;;28.85;5.05;;;;;;;10.02;100.00;101613.91;5053503;28;20040;-65
2021/05/18 05:58:09;;;;;;;28.80;4.80;;;;;;;10.06;100.00;101609.66;5053595;28;20044;-65
2021/05/18 06:00:35;;;;;;;26.17;5.47;;;;;;;10.12;100.00;101627.06;5052024;28;20043;-66
2021/05/18 06:03:01;;;;;;;26.77;5.07;;;;;;;10.17;100.00;101629.97;5053320;28;20033;-67
2021/05/18 06:05:27;;;;;;;22.95;4.18;;;;;;;10.23;100.00;101623.66;5053276;28;20495;-64
2021/05/18 06:07:53;;;;;;;31.52;5.45;;;;;;;10.36;100.00;101628.19;5053303;28;20071;-66
2021/05/18 06:10:27;;;;;;;23.15;4.40;;;;;;;10.47;100.00;101630.22;5053091;28;20057;-66
2021/05/18 06:34:44;;;;;;;26.92;5.43;;;;;;;11.13;100.00;101646.84;5052805;28;20033;-64
2021/05/18 06:42:43;;;;;;;24.65;4.20;;;;;;;11.33;100.00;101640.31;5052671;28;20071;-65
2021/05/18 06:47:54;;;;;;;22.40;4.88;;;;;;;11.51;100.00;101637.59;5052725;28;20060;-63
2021/05/18 06:52:47;;;;;;;23.85;3.92;;;;;;;11.59;100.00;101640.00;5052445;28;20037;-65
2021/05/18 06:55:21;;;;;;;17.02;4.25;;;;;;;11.66;100.00;101635.28;5052478;28;20048;-64
2021/05/18 06:57:49;;;;;;;25.65;4.25;;;;;;;11.71;100.00;101640.91;5052476;28;20067;-66
2021/05/18 07:00:19;;;;;;;19.65;3.83;;;;;;;11.80;100.00;101629.66;5052320;28;20063;-65
2021/05/18 07:02:47;;;;;;;27.17;3.75;;;;;;;11.82;100.00;101639.34;5052126;28;20048;-66
2021/05/18 07:05:24;;;;;;;15.27;3.20;;;;;;;11.85;100.00;101633.38;5052178;28;20036;-65
2021/05/18 07:10:25;;;;;;;18.13;2.92;;;;;;;11.98;100.00;101632.38;5051983;28;20056;-66
2021/05/18 07:12:51;;;;;;;18.73;2.88;;;;;;;12.07;100.00;101636.44;5052088;28;20098;-64
2021/05/18 07:15:17;;;;;;;17.80;4.00;;;;;;;12.06;100.00;101638.34;5052007;28;20037;-66
2021/05/18 07:17:42;;;;;;;16.88;3.35;;;;;;;12.07;100.00;101630.97;5052040;28;20080;-66
2021/05/18 07:20:08;;;;;;;23.98;3.17;;;;;;;12.14;100.00;101620.75;5052353;28;20143;-65
2021/05/18 07:22:34;;;;;;;22.10;2.88;;;;;;;12.23;100.00;101630.31;5051802;28;20037;-63
2021/05/18 07:25:00;;;;;;;21.58;2.50;;;;;;;12.26;100.00;101629.00;5051799;28;20041;-64
2021/05/18 07:27:26;;;;;;;21.08;3.38;;;;;;;12.27;100.00;101636.97;5051854;28;20052;-63
2021/05/18 07:29:52;;;;;;;17.75;3.08;;;;;;;12.34;100.00;101637.72;5051870;28;20052;-66
2021/05/18 07:32:17;;;;;;;19.08;3.10;;;;;;;12.37;100.00;101640.00;5051842;28;20041;-65
2021/05/18 07:34:43;;;;;;;23.27;3.22;;;;;;;12.37;100.00;101642.75;5051555;28;20116;-65
2021/05/18 07:37:09;;;;;;;26.23;2.97;;;;;;;12.42;100.00;101628.31;5051254;28;20491;-64
2021/05/18 07:39:36;;;;;;;22.92;3.22;;;;;;;12.49;100.00;101633.69;5051976;28;20082;-64
2021/05/18 07:42:01;;;;;;;15.02;2.75;;;;;;;12.60;100.00;101638.38;5051066;28;20032;-64
2021/05/18 07:44:27;;;;;;;23.13;2.92;;;;;;;12.70;100.00;101641.38;5050891;28;20040;-63
2021/05/18 07:46:52;;;;;;;18.30;3.25;;;;;;;12.72;100.00;101636.47;5067803;28;20032;-65
2021/05/18 07:49:39;;;;;;;18.83;3.50;;;;;;;12.72;100.00;101647.44;5061636;28;20037;-62
2021/05/18 08:00:57;;;;;;;17.42;2.33;;;;;;;12.88;100.00;101633.03;5066191;28;20036;-63
2021/05/18 08:05:52;;;;;;;18.73;2.58;;;;;;;13.24;100.00;101634.72;5070743;28;20036;-65
2021/05/18 08:08:18;;;;;;;15.00;2.65;;;;;;;13.32;100.00;101633.50;5068576;28;20036;-65
2021/05/18 08:13:10;;;;;;;14.25;2.70;;;;;;;13.18;100.00;101621.09;5067070;28;20020;-64
2021/05/18 08:18:38;;;;;;;13.63;2.20;;;;;;;13.01;100.00;101631.09;5063090;28;20032;-64
2021/05/18 10:36:02;;;;;;;13.15;1.50;;;;;;;13.92;100.00;101638.59;5071333;28;20024;-63
2021/05/18 10:38:31;;;;;;;15.07;1.90;;;;;;;13.92;100.00;101635.84;5071536;28;20128;-66
2021/05/18 10:41:06;;;;;;;11.48;1.67;;;;;;;13.87;100.00;101638.47;5071760;28;20032;-63
2021/05/18 10:43:33;;;;;;;11.48;1.55;;;;;;;13.78;100.00;101645.44;5071297;28;20036;-63
2021/05/18 10:46:01;;;;;;;13.43;2.63;;;;;;;13.69;100.00;101649.63;5070889;28;20036;-63
2021/05/18 10:48:34;;;;;;;15.60;3.28;;;;;;;13.62;100.00;101649.78;5070760;28;20063;-62
2021/05/18 10:51:22;;;;;;;16.83;1.73;;;;;;;13.48;100.00;101660.19;5054647;28;20368;-63
2021/05/18 10:54:18;;;;;;;18.08;2.10;;;;;;;13.38;100.00;101659.16;5057525;28;20387;-64
2021/05/18 10:57:06;;;;;;;16.90;2.03;;;;;;;13.30;100.00;101665.00;5058360;28;20466;-63
2021/05/18 10:59:57;;;;;;;16.10;2.45;;;;;;;13.24;100.00;101658.56;5059817;28;20044;-63
2021/05/18 11:02:30;;;;;;;21.52;2.60;;;;;;;13.24;100.00;101664.88;5057061;28;20032;-65
2021/05/18 11:04:56;;;;;;;8.32;1.55;;;;;;;13.19;100.00;101669.41;5058997;28;20331;-64
2021/05/18 11:07:31;;;;;;;10.88;1.92;;;;;;;13.17;100.00;101666.03;5061641;28;20032;-64
2021/05/18 11:09:57;;;;;;;16.58;2.33;;;;;;;13.22;100.00;101682.66;5046039;28;713575;-64
2021/05/18 11:12:26;;;;;;;23.33;2.78;;;;;;;13.22;100.00;101682.66;5072065;28;20067;-64
2021/05/18 11:15:02;;;;;;;13.52;2.80;;;;;;;13.30;100.00;101685.03;5071824;28;20085;-63
2021/05/18 11:17:34;;;;;;;14.13;1.63;;;;;;;13.28;100.00;101676.22;5072155;28;20039;-64
2021/05/18 11:20:14;;;;;;;13.10;2.17;;;;;;;13.35;100.00;101681.56;5071980;28;20036;-64
2021/05/18 11:25:48;;;;;;;13.07;1.98;;;;;;;13.48;100.00;101687.63;5071528;28;20130;-64
2021/05/18 11:28:18;;;;;;;15.32;2.65;;;;;;;13.52;100.00;101671.53;5068405;28;20028;-61
2021/05/18 11:30:47;;;;;;;12.27;1.80;;;;;;;13.50;100.00;101669.03;5070498;28;20058;-61
2021/05/18 11:33:13;;;;;;;17.75;2.55;;;;;;;13.53;100.00;101673.19;5052581;28;20044;-62
2021/05/18 11:35:39;;;;;;;13.65;1.92;;;;;;;13.53;100.00;101679.50;5056898;28;20068;-64
2021/05/18 11:38:15;;;;;;;18.88;2.65;;;;;;;13.52;100.00;101666.88;5043677;28;20183;-62
2021/05/18 11:40:51;;;;;;;16.35;2.85;;;;;;;13.51;100.00;101676.19;5055478;28;20056;-65
2021/05/18 11:43:34;;;;;;;12.88;2.20;;;;;;;13.55;100.00;101679.28;5055354;28;21404;-64
2021/05/18 11:46:12;;;;;;;18.15;2.83;;;;;;;13.67;100.00;101690.22;5053325;28;20036;-64
2021/05/18 11:48:41;;;;;;;14.88;2.55;;;;;;;13.79;100.00;101666.34;5054715;28;20407;-66
2021/05/18 11:51:14;;;;;;;17.02;2.30;;;;;;;13.90;100.00;101679.22;5055800;28;20032;-63
2021/05/18 11:53:45;;;;;;;13.05;2.45;;;;;;;13.94;100.00;101690.53;5058464;28;21262;-61
2021/05/18 11:56:18;;;;;;;16.08;2.78;;;;;;;14.15;100.00;101698.09;5059288;28;20032;-63
2021/05/18 11:58:43;;;;;;;12.60;1.90;;;;;;;13.97;100.00;101674.38;5059990;28;20190;-62
2021/05/18 12:01:09;;;;;;;19.00;2.83;;;;;;;13.92;100.00;101690.78;5063366;28;20032;-65
2021/05/18 12:03:36;;;;;;;18.00;2.10;;;;;;;13.90;100.00;101683.88;5058204;28;20028;-64
2021/05/18 12:06:04;;;;;;;28.27;3.90;;;;;;;13.86;100.00;101688.97;5059360;28;20083;-63
2021/05/18 12:08:31;;;;;;;16.80;3.15;;;;;;;13.77;100.00;101701.44;5047111;28;20184;-63
2021/05/18 12:11:14;;;;;;;17.38;2.45;;;;;;;13.70;100.00;101689.75;5050993;28;20048;-64
2021/05/18 12:13:41;;;;;;;25.55;2.97;;;;;;;13.70;100.00;101700.72;5047672;28;20119;-62
2021/05/18 12:16:09;;;;;;;17.90;2.85;;;;;;;13.69;100.00;101702.63;5047400;28;20261;-65
2021/05/18 12:18:36;;;;;;;16.48;2.92;;;;;;;13.73;100.00;101706.59;5046790;28;20041;-62
2021/05/18 12:21:08;;;;;;;17.92;4.25;;;;;;;13.73;100.00;101700.25;5047857;28;20040;-62
2021/05/18 12:23:34;;;;;;;20.17;2.17;;;;;;;13.69;100.00;101699.06;5044116;28;20037;-62
2021/05/18 12:26:14;;;;;;;31.05;4.28;;;;;;;13.66;100.00;101705.03;5043938;28;20032;-65
2021/05/18 12:29:05;;;;;;;21.42;2.90;;;;;;;13.60;100.00;101706.00;5042316;28;20441;-64
2021/05/18 12:31:36;;;;;;;21.25;3.13;;;;;;;13.42;100.00;101702.34;5049454;28;20023;-62
2021/05/18 12:34:04;;;;;;;17.80;2.95;;;;;;;13.34;100.00;101707.34;5043221;28;20040;-62
2021/05/18 12:36:45;;;;;;;20.38;3.92;;;;;;;13.35;100.00;101715.31;5044415;28;20036;-63
2021/05/18 12:39:13;;;;;;;17.10;2.60;;;;;;;13.54;100.00;101722.38;5052112;28;20040;-62
2021/05/18 12:41:56;;;;;;;16.63;2.40;;;;;;;13.57;100.00;101724.63;5065822;28;20040;-63
2021/05/18 12:44:24;;;;;;;24.40;3.00;;;;;;;13.57;100.00;101719.16;5069886;28;20365;-63
2021/05/18 12:46:54;;;;;;;19.83;3.00;;;;;;;13.49;100.00;101730.47;5070738;28;20032;-62
2021/05/18 12:49:30;;;;;;;16.13;2.25;;;;;;;13.42;100.00;101726.19;5070618;28;20108;-63
2021/05/18 12:52:16;;;;;;;16.65;2.72;;;;;;;13.32;100.00;101731.44;5070485;28;20061;-63
2021/05/18 12:54:53;;;;;;;13.57;2.15;;;;;;;13.21;100.00;101731.22;5070656;28;20158;-63
2021/05/18 12:57:23;;;;;;;20.83;3.75;;;;;;;13.12;100.00;101731.75;5070686;28;20440;-63
2021/05/18 13:00:02;;;;;;;12.70;2.70;;;;;;;12.98;100.00;101742.13;5070406;28;20032;-63
2021/05/18 13:02:28;;;;;;;15.57;2.50;;;;;;;12.86;100.00;101722.91;5070537;28;20032;-63
2021/05/18 13:05:12;;;;;;;12.10;1.80;;;;;;;12.79;100.00;101724.91;5070325;28;20481;-62
2021/05/18 13:07:38;;;;;;;19.13;3.17;;;;;;;12.92;100.00;101738.41;5070817;28;20453;-62
2021/05/18 13:10:12;;;;;;;22.27;3.17;;;;;;;13.10;100.00;101734.75;5070144;28;20506;-62
2021/05/18 13:12:37;;;;;;;17.25;2.75;;;;;;;13.17;100.00;101729.13;5070257;28;20036;-63
2021/05/18 13:15:12;;;;;;;9.52;1.65;;;;;;;13.18;100.00;101722.59;5070605;28;20028;-63
2021/05/18 13:17:52;;;;;;;8.65;1.40;;;;;;;13.00;100.00;101707.06;5070837;28;20604;-63
2021/05/18 13:20:18;;;;;;;6.20;1.13;;;;;;;12.96;100.00;101701.22;5070302;28;20028;-62
2021/05/18 13:22:47;;;;;;;2.17;0.65;;;;;;;12.84;100.00;101708.63;5070537;28;20510;-63
2021/05/18 13:27:53;;;;;;;8.88;1.30;;;;;;;12.93;100.00;101709.94;5070658;28;20044;-63
2021/05/18 13:30:20;;;;;;;15.88;2.33;;;;;;;13.02;100.00;101715.06;5070344;28;20498;-63
2021/05/18 13:32:48;;;;;;;11.00;1.58;;;;;;;13.04;100.00;101723.91;5070090;28;20052;-63
2021/05/18 13:35:18;;;;;;;11.20;1.77;;;;;;;12.97;100.00;101713.84;5068764;28;20503;-63
2021/05/18 13:37:44;;;;;;;13.05;2.28;;;;;;;12.99;100.00;101711.72;5070181;28;20032;-63
2021/05/18 13:40:12;;;;;;;17.13;2.67;;;;;;;13.04;100.00;101726.63;5070145;28;20421;-63
2021/05/18 13:42:39;;;;;;;15.65;2.17;;;;;;;13.11;100.00;101725.44;5070017;28;20395;-62
2021/05/18 13:45:05;;;;;;;13.60;2.15;;;;;;;13.12;100.00;101726.28;5070113;28;20364;-63
2021/05/18 13:47:30;;;;;;;18.10;2.60;;;;;;;13.11;100.00;101724.59;5071951;28;20045;-63
2021/05/18 13:49:56;;;;;;;17.38;3.10;;;;;;;13.18;100.00;101725.34;5073649;28;20047;-63
2021/05/18 13:52:21;;;;;;;16.25;1.85;;;;;;;13.24;100.00;101732.66;5073630;28;20044;-62
2021/05/18 13:54:50;;;;;;;10.63;1.52;;;;;;;13.22;100.00;101732.06;5073481;28;20052;-62
2021/05/18 13:57:16;;;;;;;10.48;1.85;;;;;;;13.23;100.00;101733.72;5073851;28;20040;-63
2021/05/18 13:59:42;;;;;;;10.10;2.05;;;;;;;13.28;100.00;101731.09;5073658;28;20123;-62
2021/05/18 14:02:07;;;;;;;14.27;2.30;;;;;;;13.33;100.00;101728.44;5073656;28;20498;-63
2021/05/18 14:04:33;;;;;;;14.02;2.25;;;;;;;13.36;100.00;101727.97;5073330;28;20419;-63
2021/05/18 14:07:53;;;;;;;14.13;2.53;;;;;;;13.41;100.00;101730.84;5073325;28;20040;-62
2021/05/18 14:10:18;;;;;;;18.38;2.60;;;;;;;13.43;100.00;101734.19;5067217;28;20052;-62
2021/05/18 14:12:44;;;;;;;16.65;2.60;;;;;;;13.45;100.00;101714.75;5073210;28;20040;-62
2021/05/18 14:15:10;;;;;;;18.02;2.80;;;;;;;13.39;100.00;101719.28;5073183;28;20033;-63
2021/05/18 14:17:36;;;;;;;16.02;2.80;;;;;;;13.36;100.00;101719.75;5073146;28;20490;-63
2021/05/18 14:20:03;;;;;;;17.25;2.65;;;;;;;13.33;100.00;101717.47;5073016;28;20040;-64
2021/05/18 14:22:29;;;;;;;18.90;1.90;;;;;;;13.39;100.00;101708.31;5073107;28;20111;-64
2021/05/18 14:27:21;;;;;;;12.88;2.15;;;;;;;13.54;100.00;101714.16;5053989;28;20037;-63
2021/05/18 14:29:47;;;;;;;19.77;3.08;;;;;;;13.80;100.00;101711.94;5069316;28;20169;-62
2021/05/18 14:32:14;;;;;;;24.50;3.03;;;;;;;14.26;100.00;101710.97;5072485;28;20048;-63
2021/05/18 14:34:40;;;;;;;18.48;2.70;;;;;;;14.27;100.00;101706.28;5072701;28;20032;-64
2021/05/18 14:37:06;;;;;;;16.38;1.98;;;;;;;14.43;100.00;101711.00;5053336;28;20462;-64
2021/05/18 14:40:25;;;;;;;13.88;2.90;;;;;;;14.75;100.00;101692.91;5071197;28;20032;-64
2021/05/18 14:45:08;;;;;;;10.93;2.00;;;;;;;15.01;100.00;101712.56;5054816;28;20478;-62
2021/05/18 14:55:47;;;;;;;18.23;2.20;;;;;;;14.39;100.00;101707.06;5059222;28;20125;-62
2021/05/18 14:58:15;;;;;;;14.82;1.90;;;;;;;14.33;100.00;101708.88;5071488;28;20273;-63
2021/05/18 15:00:41;;;;;;;14.35;2.65;;;;;;;14.34;100.00;101717.97;5071914;28;20032;-63
2021/05/18 15:03:07;;;;;;;18.65;2.85;;;;;;;14.32;100.00;101720.13;5071999;28;20082;-62
2021/05/18 15:05:33;;;;;;;19.45;2.97;;;;;;;14.38;100.00;101719.13;5072351;28;20048;-63
2021/05/18 15:07:59;;;;;;;17.73;2.53;;;;;;;14.34;100.00;101726.19;5072216;28;20441;-63
2021/05/18 15:10:26;;;;;;;10.48;2.20;;;;;;;14.26;100.00;101727.44;5071893;28;20060;-62
2021/05/18 15:12:52;;;;;;;22.13;3.10;;;;;;;14.25;100.00;101735.94;5071886;28;20032;-62
2021/05/18 15:15:18;;;;;;;10.30;2.20;;;;;;;14.20;100.00;101733.91;5071841;28;20471;-64
2021/05/18 15:17:44;;;;;;;16.58;2.85;;;;;;;14.18;100.00;101734.16;5071533;28;20416;-65
2021/05/18 15:20:11;;;;;;;17.02;3.00;;;;;;;14.31;100.00;101729.44;5071445;28;20037;-63
2021/05/18 15:22:38;;;;;;;13.88;2.38;;;;;;;14.54;100.00;101742.28;5071457;28;20093;-62
2021/05/18 15:25:05;;;;;;;12.40;2.58;;;;;;;14.82;100.00;101727.66;5071256;28;20032;-63
2021/05/18 15:27:30;;;;;;;17.27;3.00;;;;;;;15.09;100.00;101717.66;5071970;28;20040;-63
2021/05/18 15:29:56;;;;;;;8.68;1.63;;;;;;;15.15;100.00;101724.91;5071917;28;20387;-63
2021/05/18 15:32:22;;;;;;;5.00;1.63;;;;;;;15.14;100.00;101716.91;5071942;28;20048;-63
2021/05/18 15:34:48;;;;;;;10.43;1.85;;;;;;;15.15;100.00;101719.41;5071749;28;20037;-63
2021/05/18 15:37:14;;;;;;;11.05;1.42;;;;;;;15.05;100.00;101719.25;5071872;28;20032;-63
2021/05/18 15:39:42;;;;;;;12.82;1.60;;;;;;;14.86;100.00;101715.06;5071623;28;20106;-63
2021/05/18 15:42:08;;;;;;;7.85;1.60;;;;;;;14.68;100.00;101725.22;5071762;28;20029;-63
2021/05/18 15:44:35;;;;;;;9.70;1.30;;;;;;;14.52;100.00;101728.78;5071508;28;20040;-63
2021/05/18 15:47:02;;;;;;;11.07;1.50;;;;;;;14.33;100.00;101732.78;5071766;28;20047;-63
2021/05/18 15:49:29;;;;;;;11.32;1.90;;;;;;;14.23;100.00;101724.31;5071477;28;20041;-63
2021/05/18 15:51:56;;;;;;;9.73;1.95;;;;;;;14.04;100.00;101732.75;5070241;28;20047;-63
2021/05/18 15:54:22;;;;;;;9.48;1.38;;;;;;;13.91;100.00;101734.97;5071306;28;20033;-64
2021/05/18 15:56:48;;;;;;;12.95;1.50;;;;;;;13.68;100.00;101730.34;5070077;28;20081;-63
2021/05/18 15:59:14;;;;;;;11.43;2.08;;;;;;;13.64;100.00;101737.38;5070132;28;20426;-63
2021/05/18 16:01:40;;;;;;;10.68;1.95;;;;;;;13.48;100.00;101739.78;5071300;28;20539;-63
2021/05/18 16:04:10;;;;;;;11.43;1.83;;;;;;;13.38;100.00;101741.47;5070012;28;20036;-63
2021/05/18 16:06:40;;;;;;;11.45;2.20;;;;;;;13.18;100.00;101753.63;5071414;28;20082;-63
2021/05/18 16:09:07;;;;;;;13.98;2.00;;;;;;;13.02;100.00;101739.75;5071100;28;20044;-63
2021/05/18 16:11:32;;;;;;;13.27;1.90;;;;;;;12.95;100.00;101751.66;5070535;28;20127;-63
2021/05/18 16:13:59;;;;;;;18.17;3.03;;;;;;;12.85;100.00;101758.81;5071021;28;20589;-63
2021/05/18 16:16:25;;;;;;;14.93;1.95;;;;;;;12.76;100.00;101750.06;5071281;28;20100;-63
2021/05/18 16:18:51;;;;;;;4.43;0.88;;;;;;;12.70;100.00;101761.97;5071136;28;20115;-63
2021/05/18 16:21:18;;;;;;;8.52;1.60;;;;;;;12.55;100.00;101750.59;5071175;28;20123;-63